createdAt,value
2019-03-05T00:00:48.732Z,0
2019-03-05T00:01:50.913Z,0
2019-03-05T00:02:53.018Z,0
2019-03-05T00:03:55.158Z,0
2019-03-05T00:04:57.295Z,0
2019-03-05T00:05:59.430Z,0
2019-03-05T00:07:01.535Z,0
2019-03-05T00:08:03.668Z,0
2019-03-05T00:09:05.790Z,0
2019-03-05T00:10:08.190Z,0
2019-03-05T00:11:10.326Z,0
2019-03-05T00:12:12.441Z,0
2019-03-05T00:13:14.846Z,0
2019-03-05T00:14:19.900Z,0
2019-03-05T00:15:22.040Z,0
2019-03-05T00:16:24.146Z,0
2019-03-05T00:17:26.662Z,0
2019-03-05T00:18:28.812Z,0
2019-03-05T00:19:31.506Z,0
2019-03-05T00:20:33.640Z,0
2019-03-05T00:21:35.799Z,0
2019-03-05T00:22:38.193Z,0
2019-03-05T00:23:40.309Z,0
2019-03-05T00:24:42.723Z,0
2019-03-05T00:25:45.227Z,0
2019-03-05T00:26:47.347Z,0
2019-03-05T00:27:49.464Z,0
2019-03-05T00:28:51.585Z,0
2019-03-05T00:29:53.721Z,0
2019-03-05T00:30:55.923Z,0
2019-03-05T00:31:58.067Z,0
2019-03-05T00:33:00.457Z,0
2019-03-05T00:34:02.867Z,0
2019-03-05T00:35:05.022Z,0
2019-03-05T00:36:07.127Z,0
2019-03-05T00:37:09.259Z,0
2019-03-05T00:38:11.772Z,0
2019-03-05T00:39:13.918Z,0
2019-03-05T00:40:16.014Z,0
2019-03-05T00:41:18.154Z,0
2019-03-05T00:42:20.686Z,0
2019-03-05T00:43:23.183Z,0
2019-03-05T00:44:25.382Z,0
2019-03-05T00:45:27.779Z,0
2019-03-05T00:46:29.899Z,0
2019-03-05T00:47:32.022Z,0
2019-03-05T00:48:34.172Z,0
2019-03-05T00:49:36.278Z,0
2019-03-05T00:50:38.783Z,0
2019-03-05T00:51:40.908Z,0
2019-03-05T00:52:43.015Z,0
2019-03-05T00:53:45.143Z,0
2019-03-05T00:54:47.540Z,0
2019-03-05T00:55:51.421Z,0
2019-03-05T00:56:53.582Z,0
2019-03-05T00:57:56.113Z,0
2019-03-05T00:58:58.514Z,0
2019-03-05T01:00:00.876Z,0
2019-03-05T01:01:03.064Z,0
2019-03-05T01:02:05.486Z,0
2019-03-05T01:03:07.897Z,0
2019-03-05T01:04:10.037Z,0
2019-03-05T01:05:12.136Z,0
2019-03-05T01:06:14.259Z,0
2019-03-05T01:07:16.373Z,0
2019-03-05T01:08:21.345Z,0
2019-03-05T01:09:23.486Z,0
2019-03-05T01:10:25.602Z,0
2019-03-05T01:11:28.114Z,0
2019-03-05T01:12:30.697Z,0
2019-03-05T01:13:32.829Z,0
2019-03-05T01:14:35.224Z,0
2019-03-05T01:15:37.342Z,0
2019-03-05T01:16:39.757Z,0
2019-03-05T01:17:41.854Z,0
2019-03-05T01:18:43.979Z,0
2019-03-05T01:19:46.091Z,0
2019-03-05T01:20:48.210Z,0
2019-03-05T01:21:50.315Z,0
2019-03-05T01:22:52.450Z,0
2019-03-05T01:23:54.559Z,0
2019-03-05T01:24:56.674Z,0
2019-03-05T01:25:59.200Z,0
2019-03-05T01:27:01.298Z,0
2019-03-05T01:28:03.415Z,0
2019-03-05T01:29:05.607Z,0
2019-03-05T01:30:07.714Z,0
2019-03-05T01:31:09.816Z,0
2019-03-05T01:32:12.231Z,0
2019-03-05T01:33:14.396Z,0
2019-03-05T01:34:16.518Z,0
2019-03-05T01:35:18.647Z,0
2019-03-05T01:36:20.817Z,0
2019-03-05T01:37:22.934Z,0
2019-03-05T01:38:25.072Z,0
2019-03-05T01:39:27.466Z,0
2019-03-05T01:40:29.859Z,0
2019-03-05T01:41:31.972Z,0
2019-03-05T01:42:34.176Z,0
2019-03-05T01:43:36.348Z,0
2019-03-05T01:44:38.458Z,0
2019-03-05T01:45:40.607Z,0
2019-03-05T01:46:42.742Z,0
2019-03-05T01:47:44.844Z,0
2019-03-05T01:48:46.968Z,0
2019-03-05T01:49:49.093Z,0
2019-03-05T01:50:51.195Z,0
2019-03-05T01:51:53.406Z,0
2019-03-05T01:52:55.523Z,0
2019-03-05T01:53:57.642Z,0
2019-03-05T01:54:59.737Z,0
2019-03-05T01:56:02.987Z,0
2019-03-05T01:57:05.103Z,0
2019-03-05T01:58:07.817Z,0
2019-03-05T01:59:09.964Z,0
2019-03-05T02:00:13.271Z,0
2019-03-05T02:01:15.389Z,0
2019-03-05T02:02:17.515Z,0
2019-03-05T02:03:19.734Z,0
2019-03-05T02:04:21.833Z,0
2019-03-05T02:05:24.041Z,0
2019-03-05T02:06:26.143Z,0
2019-03-05T02:07:28.273Z,0
2019-03-05T02:08:30.407Z,0
2019-03-05T02:09:32.532Z,0
2019-03-05T02:10:35.028Z,0
2019-03-05T02:11:37.161Z,0
2019-03-05T02:12:39.266Z,0
2019-03-05T02:13:41.371Z,0
2019-03-05T02:14:43.777Z,0
2019-03-05T02:15:46.173Z,0
2019-03-05T02:16:48.296Z,0
2019-03-05T02:17:50.798Z,0
2019-03-05T02:18:52.919Z,0
2019-03-05T02:19:55.035Z,0
2019-03-05T02:20:57.157Z,0
2019-03-05T02:21:59.265Z,0
2019-03-05T02:23:01.376Z,0
2019-03-05T02:24:03.856Z,0
2019-03-05T02:25:06.052Z,0
2019-03-05T02:26:08.160Z,0
2019-03-05T02:27:10.269Z,0
2019-03-05T02:28:12.686Z,0
2019-03-05T02:29:14.788Z,0
2019-03-05T02:30:18.023Z,0
2019-03-05T02:31:20.451Z,0
2019-03-05T02:32:22.859Z,0
2019-03-05T02:33:25.038Z,0
2019-03-05T02:34:27.172Z,0
2019-03-05T02:35:29.601Z,0
2019-03-05T02:36:32.124Z,0
2019-03-05T02:37:34.290Z,0
2019-03-05T02:38:36.449Z,0
2019-03-05T02:39:38.883Z,0
2019-03-05T02:40:41.421Z,0
2019-03-05T02:41:43.542Z,0
2019-03-05T02:42:45.689Z,0
2019-03-05T02:43:48.129Z,0
2019-03-05T02:44:50.834Z,0
2019-03-05T02:45:52.985Z,0
2019-03-05T02:46:55.116Z,0
2019-03-05T02:47:57.801Z,0
2019-03-05T02:48:59.940Z,0
2019-03-05T02:50:02.485Z,0
2019-03-05T02:51:05.508Z,0
2019-03-05T02:52:08.195Z,0
2019-03-05T02:53:10.622Z,0
2019-03-05T02:54:13.169Z,0
2019-03-05T02:55:16.304Z,0
2019-03-05T02:56:18.464Z,0
2019-03-05T02:57:21.550Z,0
2019-03-05T02:58:23.974Z,0
2019-03-05T02:59:26.552Z,0
2019-03-05T03:00:28.975Z,0
2019-03-05T03:01:31.497Z,0
2019-03-05T03:02:33.617Z,0
2019-03-05T03:03:36.063Z,0
2019-03-05T03:04:38.581Z,0
2019-03-05T03:05:40.707Z,0
2019-03-05T03:06:43.297Z,0
2019-03-05T03:07:45.789Z,0
2019-03-05T03:08:48.608Z,0
2019-03-05T03:09:50.744Z,0
2019-03-05T03:10:53.285Z,0
2019-03-05T03:11:55.416Z,0
2019-03-05T03:12:57.877Z,0
2019-03-05T03:14:00.010Z,0
2019-03-05T03:15:02.160Z,0
2019-03-05T03:16:04.304Z,0
2019-03-05T03:17:06.744Z,0
2019-03-05T03:18:08.916Z,0
2019-03-05T03:19:11.044Z,0
2019-03-05T03:20:13.493Z,0
2019-03-05T03:21:15.922Z,0
2019-03-05T03:22:18.826Z,0
2019-03-05T03:23:21.241Z,0
2019-03-05T03:24:23.647Z,0
2019-03-05T03:25:25.781Z,0
2019-03-05T03:26:27.914Z,0
2019-03-05T03:27:30.326Z,0
2019-03-05T03:28:32.740Z,0
2019-03-05T03:29:35.543Z,0
2019-03-05T03:30:38.040Z,0
2019-03-05T03:31:40.493Z,0
2019-03-05T03:32:44.014Z,0
2019-03-05T03:33:46.856Z,0
2019-03-05T03:34:49.315Z,0
2019-03-05T03:35:51.447Z,0
2019-03-05T03:36:53.851Z,0
2019-03-05T03:37:56.394Z,0
2019-03-05T03:38:58.807Z,0
2019-03-05T03:40:01.980Z,0
2019-03-05T03:41:04.427Z,0
2019-03-05T03:42:06.564Z,0
2019-03-05T03:43:08.996Z,0
2019-03-05T03:44:11.150Z,0
2019-03-05T03:45:13.282Z,0
2019-03-05T03:46:15.768Z,0
2019-03-05T03:47:17.928Z,0
2019-03-05T03:48:20.344Z,0
2019-03-05T03:49:22.479Z,0
2019-03-05T03:50:24.631Z,0
2019-03-05T03:51:27.032Z,0
2019-03-05T03:52:29.458Z,0
2019-03-05T03:53:31.598Z,0
2019-03-05T03:54:34.034Z,0
2019-03-05T03:55:36.817Z,0
2019-03-05T03:56:39.245Z,0
2019-03-05T03:57:41.653Z,0
2019-03-05T03:58:44.085Z,0
2019-03-05T03:59:46.500Z,0
2019-03-05T04:00:48.612Z,0
2019-03-05T04:01:50.814Z,0
2019-03-05T04:02:52.977Z,0
2019-03-05T04:03:55.106Z,0
2019-03-05T04:04:57.520Z,0
2019-03-05T04:05:59.723Z,0
2019-03-05T04:07:01.851Z,0
2019-03-05T04:08:04.388Z,0
2019-03-05T04:09:06.925Z,0
2019-03-05T04:10:09.777Z,0
2019-03-05T04:11:11.908Z,0
2019-03-05T04:12:14.446Z,0
2019-03-05T04:13:17.282Z,0
2019-03-05T04:14:19.419Z,0
2019-03-05T04:15:22.709Z,0
2019-03-05T04:16:25.612Z,0
2019-03-05T04:17:27.763Z,0
2019-03-05T04:18:30.695Z,0
2019-03-05T04:19:32.846Z,0
2019-03-05T04:20:34.993Z,0
2019-03-05T04:21:37.467Z,0
2019-03-05T04:22:39.996Z,0
2019-03-05T04:23:42.807Z,0
2019-03-05T04:24:45.204Z,0
2019-03-05T04:25:47.614Z,0
2019-03-05T04:26:49.732Z,0
2019-03-05T04:27:51.847Z,0
2019-03-05T04:28:53.983Z,0
2019-03-05T04:29:56.102Z,0
2019-03-05T04:30:58.235Z,0
2019-03-05T04:32:00.630Z,0
2019-03-05T04:33:03.727Z,0
2019-03-05T04:34:06.371Z,0
2019-03-05T04:35:08.812Z,0
2019-03-05T04:36:10.927Z,0
2019-03-05T04:37:13.028Z,0
2019-03-05T04:38:15.165Z,0
2019-03-05T04:39:17.307Z,0
2019-03-05T04:40:19.437Z,0
2019-03-05T04:41:21.541Z,0
2019-03-05T04:42:23.675Z,0
2019-03-05T04:43:25.780Z,0
2019-03-05T04:44:27.893Z,0
2019-03-05T04:45:30.416Z,0
2019-03-05T04:46:32.533Z,0
2019-03-05T04:47:35.034Z,0
2019-03-05T04:48:37.164Z,0
2019-03-05T04:49:39.277Z,0
2019-03-05T04:50:41.391Z,0
2019-03-05T04:51:43.516Z,0
2019-03-05T04:52:45.924Z,0
2019-03-05T04:53:48.042Z,0
2019-03-05T04:54:50.176Z,0
2019-03-05T04:55:52.289Z,0
2019-03-05T04:56:54.401Z,0
2019-03-05T04:57:56.824Z,0
2019-03-05T04:58:59.210Z,0
2019-03-05T05:00:01.556Z,0
2019-03-05T05:01:03.689Z,0
2019-03-05T05:02:06.371Z,0
2019-03-05T05:03:09.089Z,0
2019-03-05T05:04:11.891Z,0
2019-03-05T05:05:14.301Z,0
2019-03-05T05:06:16.402Z,0
2019-03-05T05:07:18.918Z,0
2019-03-05T05:08:21.044Z,0
2019-03-05T05:09:23.151Z,0
2019-03-05T05:10:25.284Z,0
2019-03-05T05:11:27.393Z,0
2019-03-05T05:12:29.521Z,0
2019-03-05T05:13:31.636Z,0
2019-03-05T05:14:33.778Z,0
2019-03-05T05:15:36.621Z,0
2019-03-05T05:16:38.743Z,0
2019-03-05T05:17:40.865Z,0
2019-03-05T05:18:43.654Z,0
2019-03-05T05:19:45.783Z,0
2019-03-05T05:20:48.185Z,0
2019-03-05T05:21:50.293Z,0
2019-03-05T05:22:52.465Z,0
2019-03-05T05:23:54.585Z,0
2019-03-05T05:24:56.692Z,0
2019-03-05T05:25:58.819Z,0
2019-03-05T05:27:00.930Z,0
2019-03-05T05:28:03.321Z,0
2019-03-05T05:29:05.449Z,0
2019-03-05T05:30:07.558Z,0
2019-03-05T05:31:09.755Z,0
2019-03-05T05:32:12.276Z,0
2019-03-05T05:33:14.672Z,0
2019-03-05T05:34:17.121Z,0
2019-03-05T05:35:19.218Z,0
2019-03-05T05:36:21.393Z,0
2019-03-05T05:37:23.810Z,0
2019-03-05T05:38:25.933Z,0
2019-03-05T05:39:28.043Z,0
2019-03-05T05:40:30.461Z,0
2019-03-05T05:41:32.580Z,0
2019-03-05T05:42:34.990Z,0
2019-03-05T05:43:37.116Z,0
2019-03-05T05:44:39.502Z,0
2019-03-05T05:45:41.618Z,0
2019-03-05T05:46:43.742Z,0
2019-03-05T05:47:45.873Z,0
2019-03-05T05:48:47.980Z,0
2019-03-05T05:49:50.377Z,0
2019-03-05T05:50:52.496Z,0
2019-03-05T05:51:54.598Z,0
2019-03-05T05:52:57.014Z,0
2019-03-05T05:53:59.134Z,1
2019-03-05T05:55:01.774Z,1
2019-03-05T05:56:04.002Z,1
2019-03-05T05:57:06.141Z,1
2019-03-05T05:58:08.254Z,1
2019-03-05T05:59:10.394Z,1
2019-03-05T06:00:12.514Z,1
2019-03-05T06:01:14.627Z,1
2019-03-05T06:02:16.743Z,1
2019-03-05T06:03:18.887Z,2
2019-03-05T06:04:21.281Z,2
2019-03-05T06:05:23.411Z,2
2019-03-05T06:06:25.531Z,3
2019-03-05T06:07:27.662Z,3
2019-03-05T06:08:30.160Z,4
2019-03-05T06:09:32.570Z,4
2019-03-05T06:10:34.685Z,4
2019-03-05T06:11:36.820Z,5
2019-03-05T06:12:38.921Z,6
2019-03-05T06:13:41.055Z,6
2019-03-05T06:14:43.174Z,6
2019-03-05T06:15:45.294Z,6
2019-03-05T06:16:47.708Z,5
2019-03-05T06:17:50.115Z,5
2019-03-05T06:18:52.242Z,5
2019-03-05T06:19:54.354Z,4
2019-03-05T06:20:56.491Z,4
2019-03-05T06:21:58.603Z,5
2019-03-05T06:23:00.732Z,4
2019-03-05T06:24:03.227Z,4
2019-03-05T06:25:06.137Z,4
2019-03-05T06:26:10.819Z,3
2019-03-05T06:27:12.953Z,3
2019-03-05T06:28:15.354Z,3
2019-03-05T06:29:17.486Z,3
2019-03-05T06:30:19.640Z,3
2019-03-05T06:31:21.768Z,4
2019-03-05T06:32:23.896Z,5
2019-03-05T06:33:26.014Z,6
2019-03-05T06:34:28.137Z,8
2019-03-05T06:35:30.946Z,8
2019-03-05T06:36:33.080Z,8
2019-03-05T06:37:35.491Z,9
2019-03-05T06:38:38.003Z,10
2019-03-05T06:39:40.127Z,9
2019-03-05T06:40:42.315Z,11
2019-03-05T06:41:44.451Z,11
2019-03-05T06:42:46.840Z,11
2019-03-05T06:43:48.960Z,11
2019-03-05T06:44:51.464Z,12
2019-03-05T06:45:53.665Z,13
2019-03-05T06:46:55.799Z,9
2019-03-05T06:47:57.915Z,7
2019-03-05T06:49:00.072Z,7
2019-03-05T06:50:02.235Z,7
2019-03-05T06:51:04.415Z,8
2019-03-05T06:52:06.530Z,9
2019-03-05T06:53:08.655Z,8
2019-03-05T06:54:10.841Z,8
2019-03-05T06:55:12.956Z,7
2019-03-05T06:56:15.095Z,7
2019-03-05T06:57:17.227Z,10
2019-03-05T06:58:19.328Z,13
2019-03-05T06:59:21.452Z,16
2019-03-05T07:00:23.852Z,14
2019-03-05T07:01:25.960Z,14
2019-03-05T07:02:28.079Z,14
2019-03-05T07:03:30.200Z,16
2019-03-05T07:04:32.329Z,16
2019-03-05T07:05:34.463Z,16
2019-03-05T07:06:36.591Z,18
2019-03-05T07:07:38.704Z,19
2019-03-05T07:08:41.108Z,19
2019-03-05T07:09:43.247Z,21
2019-03-05T07:10:45.734Z,25
2019-03-05T07:11:47.866Z,30
2019-03-05T07:12:49.982Z,35
2019-03-05T07:13:52.084Z,33
2019-03-05T07:14:54.210Z,32
2019-03-05T07:15:56.361Z,34
2019-03-05T07:16:58.472Z,39
2019-03-05T07:18:00.580Z,35
2019-03-05T07:19:03.024Z,27
2019-03-05T07:20:05.486Z,19
2019-03-05T07:21:07.903Z,11
2019-03-05T07:22:10.322Z,12
2019-03-05T07:23:12.430Z,14
2019-03-05T07:24:14.569Z,16
2019-03-05T07:25:16.692Z,20
2019-03-05T07:26:18.869Z,21
2019-03-05T07:27:20.981Z,16
2019-03-05T07:28:23.985Z,15
2019-03-05T07:29:26.118Z,15
2019-03-05T07:30:28.231Z,17
2019-03-05T07:31:30.364Z,19
2019-03-05T07:32:32.480Z,16
2019-03-05T07:33:35.267Z,19
2019-03-05T07:34:37.396Z,19
2019-03-05T07:35:39.507Z,19
2019-03-05T07:36:41.616Z,17
2019-03-05T07:37:43.746Z,19
2019-03-05T07:38:45.848Z,20
2019-03-05T07:39:47.966Z,17
2019-03-05T07:40:50.464Z,17
2019-03-05T07:41:52.594Z,22
2019-03-05T07:42:54.727Z,29
2019-03-05T07:43:56.864Z,34
2019-03-05T07:44:59.363Z,56
2019-03-05T07:46:01.486Z,49
2019-03-05T07:47:03.890Z,75
2019-03-05T07:48:06.570Z,53
2019-03-05T07:49:08.694Z,66
2019-03-05T07:50:10.831Z,42
2019-03-05T07:51:12.997Z,33
2019-03-05T07:52:15.104Z,25
2019-03-05T07:53:17.708Z,20
2019-03-05T07:54:19.835Z,20
2019-03-05T07:55:21.943Z,20
2019-03-05T07:56:24.070Z,24
2019-03-05T07:57:26.166Z,25
2019-03-05T07:58:28.284Z,22
2019-03-05T07:59:30.687Z,21
2019-03-05T08:00:32.828Z,19
2019-03-05T08:01:34.940Z,22
2019-03-05T08:02:37.065Z,24
2019-03-05T08:03:39.178Z,21
2019-03-05T08:04:41.311Z,26
2019-03-05T08:05:43.753Z,35
2019-03-05T08:06:45.896Z,36
2019-03-05T08:07:48.028Z,30
2019-03-05T08:08:50.140Z,21
2019-03-05T08:09:52.253Z,27
2019-03-05T08:10:54.769Z,36
2019-03-05T08:11:56.871Z,31
2019-03-05T08:12:59.290Z,34
2019-03-05T08:14:01.519Z,26
2019-03-05T08:15:04.252Z,33
2019-03-05T08:16:06.363Z,27
2019-03-05T08:17:08.587Z,20
2019-03-05T08:18:11.097Z,28
2019-03-05T08:19:13.213Z,22
2019-03-05T08:20:15.349Z,23
2019-03-05T08:21:17.735Z,21
2019-03-05T08:22:19.867Z,21
2019-03-05T08:23:21.986Z,22
2019-03-05T08:24:24.114Z,28
2019-03-05T08:25:26.219Z,34
2019-03-05T08:26:28.363Z,45
2019-03-05T08:27:30.772Z,52
2019-03-05T08:28:32.875Z,39
2019-03-05T08:29:35.006Z,31
2019-03-05T08:30:37.106Z,27
2019-03-05T08:31:39.896Z,35
2019-03-05T08:32:42.016Z,51
2019-03-05T08:33:44.161Z,97
2019-03-05T08:34:46.273Z,133
2019-03-05T08:35:48.416Z,107
2019-03-05T08:36:50.571Z,65
2019-03-05T08:37:52.678Z,102
2019-03-05T08:38:54.802Z,118
2019-03-05T08:39:56.927Z,85
2019-03-05T08:40:59.057Z,107
2019-03-05T08:42:01.174Z,78
2019-03-05T08:43:03.283Z,197
2019-03-05T08:44:05.444Z,201
2019-03-05T08:45:07.545Z,224
2019-03-05T08:46:09.663Z,179
2019-03-05T08:47:11.798Z,96
2019-03-05T08:48:14.191Z,140
2019-03-05T08:49:19.489Z,187
2019-03-05T08:50:21.629Z,84
2019-03-05T08:51:23.772Z,233
2019-03-05T08:52:25.886Z,226
2019-03-05T08:53:28.014Z,119
2019-03-05T08:54:30.142Z,104
2019-03-05T08:55:32.563Z,90
2019-03-05T08:56:34.979Z,69
2019-03-05T08:57:37.102Z,188
2019-03-05T08:58:39.209Z,70
2019-03-05T08:59:41.340Z,100
2019-03-05T09:00:43.469Z,65
2019-03-05T09:01:45.577Z,77
2019-03-05T09:02:50.638Z,89
2019-03-05T09:03:52.757Z,77
2019-03-05T09:04:55.268Z,211
2019-03-05T09:05:57.387Z,68
2019-03-05T09:06:59.530Z,85
2019-03-05T09:08:01.644Z,90
2019-03-05T09:09:03.771Z,79
2019-03-05T09:10:06.195Z,79
2019-03-05T09:11:08.688Z,87
2019-03-05T09:12:10.822Z,232
2019-03-05T09:13:13.552Z,83
2019-03-05T09:14:15.698Z,60
2019-03-05T09:15:17.839Z,72
2019-03-05T09:16:19.971Z,116
2019-03-05T09:17:22.160Z,41
2019-03-05T09:18:24.408Z,37
2019-03-05T09:19:26.852Z,35
2019-03-05T09:20:29.309Z,50
2019-03-05T09:21:31.537Z,54
2019-03-05T09:22:34.472Z,51
2019-03-05T09:23:36.621Z,47
2019-03-05T09:24:38.756Z,50
2019-03-05T09:25:40.871Z,68
2019-03-05T09:26:53.204Z,45
2019-03-05T09:27:56.712Z,52
2019-03-05T09:28:58.851Z,68
2019-03-05T09:30:01.134Z,81
2019-03-05T09:31:03.681Z,54
2019-03-05T09:32:05.815Z,63
2019-03-05T09:33:08.302Z,68
2019-03-05T09:34:10.798Z,78
2019-03-05T09:35:12.904Z,144
2019-03-05T09:36:15.334Z,105
2019-03-05T09:37:18.418Z,160
2019-03-05T09:38:20.541Z,89
2019-03-05T09:39:22.654Z,95
2019-03-05T09:40:25.079Z,177
2019-03-05T09:41:27.200Z,117
2019-03-05T09:42:41.195Z,69
2019-03-05T09:43:43.333Z,64
2019-03-05T09:44:45.434Z,54
2019-03-05T09:45:47.574Z,39
2019-03-05T09:46:49.702Z,36
2019-03-05T09:47:52.114Z,36
2019-03-05T09:48:54.520Z,35
2019-03-05T09:49:56.652Z,35
2019-03-05T09:50:58.765Z,33
2019-03-05T09:52:00.906Z,29
2019-03-05T09:53:03.039Z,28
2019-03-05T09:54:05.434Z,36
2019-03-05T09:55:07.566Z,39
2019-03-05T09:56:09.711Z,41
2019-03-05T09:57:11.821Z,26
2019-03-05T09:58:13.950Z,29
2019-03-05T09:59:16.092Z,34
2019-03-05T10:00:18.499Z,27
2019-03-05T10:01:20.633Z,25
2019-03-05T10:02:22.747Z,26
2019-03-05T10:03:24.884Z,30
2019-03-05T10:04:27.327Z,27
2019-03-05T10:05:29.471Z,24
2019-03-05T10:06:31.919Z,26
2019-03-05T10:07:34.044Z,28
2019-03-05T10:08:36.246Z,23
2019-03-05T10:09:38.767Z,29
2019-03-05T10:10:40.898Z,26
2019-03-05T10:11:43.018Z,18
2019-03-05T10:12:45.141Z,15
2019-03-05T10:13:47.249Z,21
2019-03-05T10:14:49.467Z,20
2019-03-05T10:15:54.303Z,24
2019-03-05T10:16:56.431Z,25
2019-03-05T10:17:58.581Z,25
2019-03-05T10:19:00.697Z,34
2019-03-05T10:20:03.266Z,34
2019-03-05T10:21:05.406Z,24
2019-03-05T10:22:07.842Z,25
2019-03-05T10:23:10.071Z,40
2019-03-05T10:24:12.473Z,37
2019-03-05T10:25:14.605Z,26
2019-03-05T10:26:19.931Z,26
2019-03-05T10:27:22.106Z,29
2019-03-05T10:28:24.234Z,25
2019-03-05T10:29:26.403Z,25
2019-03-05T10:30:28.567Z,25
2019-03-05T10:31:33.086Z,20
2019-03-05T10:32:35.430Z,21
2019-03-05T10:33:37.573Z,21
2019-03-05T10:34:40.156Z,24
2019-03-05T10:35:42.305Z,26
2019-03-05T10:36:44.708Z,25
2019-03-05T10:37:46.835Z,27
2019-03-05T10:38:59.253Z,32
2019-03-05T10:40:01.366Z,32
2019-03-05T10:41:03.791Z,28
2019-03-05T10:42:05.987Z,42
2019-03-05T10:43:10.354Z,45
2019-03-05T10:44:12.479Z,60
2019-03-05T10:45:14.890Z,100
2019-03-05T10:46:17.014Z,90
2019-03-05T10:47:19.111Z,86
2019-03-05T10:48:21.247Z,74
2019-03-05T10:49:23.367Z,60
2019-03-05T10:50:25.888Z,61
2019-03-05T10:51:28.035Z,66
2019-03-05T10:52:30.446Z,54
2019-03-05T10:53:32.573Z,55
2019-03-05T10:54:35.003Z,68
2019-03-05T10:55:37.141Z,93
2019-03-05T10:56:39.254Z,219
2019-03-05T10:57:44.152Z,98
2019-03-05T10:58:46.829Z,92
2019-03-05T10:59:48.955Z,76
2019-03-05T11:00:51.084Z,65
2019-03-05T11:01:53.213Z,71
2019-03-05T11:02:55.356Z,64
2019-03-05T11:03:57.519Z,62
2019-03-05T11:04:59.682Z,61
2019-03-05T11:06:02.210Z,57
2019-03-05T11:07:04.348Z,61
2019-03-05T11:08:06.734Z,73
2019-03-05T11:09:08.863Z,76
2019-03-05T11:10:10.994Z,161
2019-03-05T11:11:15.822Z,74
2019-03-05T11:12:18.331Z,47
2019-03-05T11:13:20.533Z,56
2019-03-05T11:14:22.675Z,67
2019-03-05T11:15:24.786Z,61
2019-03-05T11:16:32.450Z,58
2019-03-05T11:17:34.964Z,73
2019-03-05T11:18:37.190Z,58
2019-03-05T11:19:39.320Z,43
2019-03-05T11:20:41.487Z,31
2019-03-05T11:21:44.502Z,25
2019-03-05T11:22:46.631Z,27
2019-03-05T11:23:48.864Z,25
2019-03-05T11:24:50.977Z,23
2019-03-05T11:25:53.532Z,24
2019-03-05T11:26:55.651Z,26
2019-03-05T11:27:57.770Z,39
2019-03-05T11:28:59.901Z,66
2019-03-05T11:30:02.323Z,67
2019-03-05T11:31:04.825Z,52
2019-03-05T11:32:07.249Z,40
2019-03-05T11:33:09.390Z,27
2019-03-05T11:34:14.273Z,24
2019-03-05T11:35:16.402Z,39
2019-03-05T11:36:18.587Z,59
2019-03-05T11:37:20.685Z,83
2019-03-05T11:38:22.811Z,65
2019-03-05T11:39:24.929Z,76
2019-03-05T11:40:27.036Z,72
2019-03-05T11:41:29.889Z,61
2019-03-05T11:42:32.008Z,59
2019-03-05T11:43:34.130Z,48
2019-03-05T11:44:36.246Z,51
2019-03-05T11:45:38.987Z,54
2019-03-05T11:46:41.096Z,59
2019-03-05T11:47:43.241Z,69
2019-03-05T11:48:45.374Z,54
2019-03-05T11:49:47.485Z,38
2019-03-05T11:50:52.456Z,45
2019-03-05T11:51:54.575Z,56
2019-03-05T11:52:56.687Z,37
2019-03-05T11:53:58.827Z,36
2019-03-05T11:55:01.233Z,66
2019-03-05T11:56:03.366Z,331
2019-03-05T11:57:05.508Z,83
2019-03-05T11:58:08.072Z,136
2019-03-05T11:59:10.204Z,307
2019-03-05T12:00:12.360Z,115
2019-03-05T12:01:14.480Z,302
2019-03-05T12:02:23.272Z,341
2019-03-05T12:03:25.420Z,161
2019-03-05T12:04:27.576Z,299
2019-03-05T12:05:29.708Z,216
2019-03-05T12:06:31.828Z,109
2019-03-05T12:07:33.940Z,99
2019-03-05T12:08:36.361Z,128
2019-03-05T12:09:38.496Z,124
2019-03-05T12:10:40.599Z,161
2019-03-05T12:11:42.730Z,119
2019-03-05T12:12:44.863Z,147
2019-03-05T12:13:46.977Z,112
2019-03-05T12:14:49.113Z,140
2019-03-05T12:15:51.242Z,78
2019-03-05T12:16:53.368Z,103
2019-03-05T12:17:55.473Z,101
2019-03-05T12:18:57.626Z,72
2019-03-05T12:19:59.736Z,61
2019-03-05T12:21:01.855Z,48
2019-03-05T12:22:04.259Z,33
2019-03-05T12:23:12.783Z,30
2019-03-05T12:24:14.917Z,60
2019-03-05T12:25:17.050Z,182
2019-03-05T12:26:19.173Z,87
2019-03-05T12:27:21.278Z,83
2019-03-05T12:28:23.406Z,80
2019-03-05T12:29:25.544Z,124
2019-03-05T12:30:27.671Z,91
2019-03-05T12:31:30.118Z,95
2019-03-05T12:32:32.221Z,93
2019-03-05T12:33:34.634Z,135
2019-03-05T12:34:37.227Z,257
2019-03-05T12:35:39.370Z,87
2019-03-05T12:36:42.064Z,116
2019-03-05T12:37:44.195Z,100
2019-03-05T12:38:47.718Z,136
2019-03-05T12:39:50.129Z,97
2019-03-05T12:40:52.261Z,105
2019-03-05T12:41:54.673Z,162
2019-03-05T12:42:56.783Z,92
2019-03-05T12:43:59.198Z,81
2019-03-05T12:45:01.472Z,78
2019-03-05T12:46:03.590Z,71
2019-03-05T12:47:05.717Z,67
2019-03-05T12:48:08.123Z,39
2019-03-05T12:49:10.262Z,49
2019-03-05T12:50:12.400Z,66
2019-03-05T12:51:14.530Z,62
2019-03-05T12:52:16.641Z,37
2019-03-05T12:53:18.775Z,28
2019-03-05T12:54:20.909Z,32
2019-03-05T12:55:23.021Z,35
2019-03-05T12:56:26.046Z,52
2019-03-05T12:57:28.153Z,68
2019-03-05T12:58:30.274Z,51
2019-03-05T12:59:32.384Z,34
2019-03-05T13:00:34.810Z,37
2019-03-05T13:01:36.936Z,36
2019-03-05T13:02:39.065Z,49
2019-03-05T13:03:41.203Z,63
2019-03-05T13:04:43.689Z,56
2019-03-05T13:05:45.809Z,63
2019-03-05T13:06:47.938Z,78
2019-03-05T13:07:58.697Z,91
2019-03-05T13:09:01.111Z,88
2019-03-05T13:10:03.970Z,66
2019-03-05T13:11:14.481Z,73
2019-03-05T13:12:16.678Z,74
2019-03-05T13:13:19.076Z,71
2019-03-05T13:14:21.207Z,47
2019-03-05T13:15:23.337Z,33
2019-03-05T13:16:25.485Z,33
2019-03-05T13:17:27.630Z,33
2019-03-05T13:18:33.535Z,33
2019-03-05T13:19:35.656Z,44
2019-03-05T13:20:38.087Z,40
2019-03-05T13:21:44.126Z,42
2019-03-05T13:22:46.728Z,40
2019-03-05T13:23:51.787Z,38
2019-03-05T13:24:54.237Z,40
2019-03-05T13:25:56.345Z,36
2019-03-05T13:26:58.474Z,40
2019-03-05T13:28:05.349Z,36
2019-03-05T13:29:07.456Z,28
2019-03-05T13:30:12.120Z,32
2019-03-05T13:31:14.518Z,30
2019-03-05T13:32:22.760Z,31
2019-03-05T13:33:24.868Z,20
2019-03-05T13:34:27.387Z,16
2019-03-05T13:35:33.354Z,18
2019-03-05T13:36:35.801Z,14
2019-03-05T13:37:37.957Z,18
2019-03-05T13:38:47.277Z,15
2019-03-05T13:39:49.406Z,14
2019-03-05T13:40:51.519Z,18
2019-03-05T13:41:56.117Z,22
2019-03-05T13:42:58.238Z,18
2019-03-05T13:44:00.365Z,22
2019-03-05T13:45:11.308Z,32
2019-03-05T13:46:13.422Z,25
2019-03-05T13:47:15.580Z,35
2019-03-05T13:48:24.950Z,46
2019-03-05T13:49:27.073Z,63
2019-03-05T13:50:29.469Z,90
2019-03-05T13:51:31.627Z,161
2019-03-05T13:52:38.580Z,155
2019-03-05T13:53:41.045Z,61
2019-03-05T13:54:50.632Z,61
2019-03-05T13:55:52.740Z,63
2019-03-05T13:56:55.153Z,48
2019-03-05T13:57:57.400Z,40
2019-03-05T13:58:59.539Z,38
2019-03-05T14:00:01.660Z,33
2019-03-05T14:01:03.831Z,31
2019-03-05T14:02:06.337Z,30
2019-03-05T14:03:08.447Z,22
2019-03-05T14:04:10.581Z,18
2019-03-05T14:05:12.698Z,18
2019-03-05T14:06:14.871Z,24
2019-03-05T14:07:17.011Z,21
2019-03-05T14:08:19.195Z,23
2019-03-05T14:09:21.807Z,23
2019-03-05T14:10:27.034Z,16
2019-03-05T14:11:29.255Z,12
2019-03-05T14:12:31.804Z,10
2019-03-05T14:13:34.671Z,9
2019-03-05T14:14:36.886Z,8
2019-03-05T14:15:39.101Z,8
2019-03-05T14:16:41.396Z,9
2019-03-05T14:17:43.747Z,11
2019-03-05T14:18:45.893Z,8
2019-03-05T14:19:48.083Z,7
2019-03-05T14:20:50.907Z,8
2019-03-05T14:21:53.764Z,12
2019-03-05T14:22:55.963Z,14
2019-03-05T14:23:58.230Z,16
2019-03-05T14:25:04.621Z,16
2019-03-05T14:26:07.133Z,15
2019-03-05T14:27:09.434Z,18
2019-03-05T14:28:11.698Z,22
2019-03-05T14:29:14.247Z,23
2019-03-05T14:30:16.995Z,22
2019-03-05T14:31:19.289Z,24
2019-03-05T14:32:22.764Z,30
2019-03-05T14:33:24.959Z,37
2019-03-05T14:34:30.856Z,42
2019-03-05T14:35:33.060Z,46
2019-03-05T14:36:35.307Z,48
2019-03-05T14:37:37.789Z,50
2019-03-05T14:38:39.943Z,50
2019-03-05T14:39:42.471Z,49
2019-03-05T14:40:45.052Z,49
2019-03-05T14:41:47.291Z,142
2019-03-05T14:42:49.465Z,104
2019-03-05T14:43:51.823Z,51
2019-03-05T14:44:54.308Z,118
2019-03-05T14:45:56.619Z,129
2019-03-05T14:46:58.903Z,125
2019-03-05T14:48:04.074Z,94
2019-03-05T14:49:06.514Z,108
2019-03-05T14:50:08.772Z,115
2019-03-05T14:51:11.006Z,75
2019-03-05T14:52:13.265Z,69
2019-03-05T14:53:15.506Z,54
2019-03-05T14:54:18.053Z,51
2019-03-05T14:55:20.316Z,38
2019-03-05T14:56:22.814Z,38
2019-03-05T14:57:25.380Z,45
2019-03-05T14:58:27.912Z,40
2019-03-05T14:59:30.160Z,39
2019-03-05T15:00:32.448Z,43
2019-03-05T15:01:34.803Z,41
2019-03-05T15:02:37.436Z,44
2019-03-05T15:03:39.808Z,43